createdAt,value
2022-10-05T00:00:57.262Z,101012.03
2022-10-05T00:03:25.534Z,101005.56
2022-10-05T00:05:52.821Z,101004.94
2022-10-05T00:08:24.150Z,101015.06
2022-10-05T00:10:52.080Z,101015.28
2022-10-05T00:13:24.098Z,101019.75
2022-10-05T00:15:52.194Z,101024.09
2022-10-05T00:18:21.961Z,101029.66
2022-10-05T00:20:49.562Z,101028.47
2022-10-05T00:23:21.463Z,101030.84
2022-10-05T00:25:48.942Z,101034.72
2022-10-05T00:28:26.959Z,101040.28
2022-10-05T00:30:55.359Z,101047.25
2022-10-05T00:33:22.931Z,101043.78
2022-10-05T00:35:50.308Z,101041.59
2022-10-05T00:38:17.812Z,101040.50
2022-10-05T00:40:45.168Z,101042.66
2022-10-05T00:43:38.170Z,101042.22
2022-10-05T00:46:07.976Z,101054.38
2022-10-05T00:48:45.854Z,101047.38
2022-10-05T00:51:24.349Z,101050.03
2022-10-05T00:54:18.386Z,101055.31
2022-10-05T00:56:46.313Z,101066.63
2022-10-05T00:59:13.883Z,101066.06
2022-10-05T01:01:45.217Z,101062.56
2022-10-05T01:04:16.105Z,101070.84
2022-10-05T01:06:43.838Z,101063.63
2022-10-05T01:09:17.458Z,101063.41
2022-10-05T01:12:00.637Z,101077.16
2022-10-05T01:14:30.464Z,101078.19
2022-10-05T01:17:03.930Z,101077.88
2022-10-05T01:19:43.593Z,101084.75
2022-10-05T01:22:10.963Z,101088.25
2022-10-05T01:24:41.180Z,101092.88
2022-10-05T01:27:14.113Z,101095.66
2022-10-05T01:29:57.021Z,101103.25
2022-10-05T01:32:36.662Z,101097.84
2022-10-05T01:35:19.118Z,101096.19
2022-10-05T01:37:49.598Z,101104.09
2022-10-05T01:40:23.123Z,101094.63
2022-10-05T01:43:02.806Z,101101.22
2022-10-05T01:45:36.946Z,101098.59
2022-10-05T01:48:08.158Z,101105.03
2022-10-05T01:50:57.135Z,101103.25
2022-10-05T01:53:43.642Z,101102.91
2022-10-05T01:56:26.283Z,101113.13
2022-10-05T01:58:53.898Z,101115.16
2022-10-05T02:01:24.080Z,101121.56
2022-10-05T02:03:57.303Z,101115.56
2022-10-05T02:06:25.240Z,101117.00
2022-10-05T02:09:02.433Z,101125.47
2022-10-05T02:11:30.201Z,101119.28
2022-10-05T02:14:02.605Z,101132.72
2022-10-05T02:16:44.730Z,101126.44
2022-10-05T02:19:21.344Z,101128.97
2022-10-05T02:21:50.728Z,101131.53
2022-10-05T02:24:19.882Z,101131.56
2022-10-05T02:26:47.509Z,101125.69
2022-10-05T02:29:15.440Z,101129.28
2022-10-05T02:31:46.181Z,101125.50
2022-10-05T02:34:32.507Z,101119.25
2022-10-05T02:37:18.421Z,101132.06
2022-10-05T02:39:47.093Z,101120.81
2022-10-05T02:42:26.272Z,101140.47
2022-10-05T02:45:00.752Z,101138.19
2022-10-05T02:47:33.718Z,101137.00
2022-10-05T02:50:10.043Z,101149.97
2022-10-05T02:52:40.371Z,101155.69
2022-10-05T02:55:18.741Z,101154.25
2022-10-05T02:57:53.330Z,101171.56
2022-10-05T03:00:24.363Z,101176.69
2022-10-05T03:03:01.283Z,101186.75
2022-10-05T03:05:33.143Z,101187.03
2022-10-05T03:08:03.259Z,101186.81
2022-10-05T03:10:36.053Z,101197.28
2022-10-05T03:13:13.497Z,101201.16
2022-10-05T03:15:51.160Z,101216.84
2022-10-05T03:18:41.313Z,101222.66
2022-10-05T03:21:12.229Z,101216.78
2022-10-05T03:23:47.579Z,101228.00
2022-10-05T03:26:20.894Z,101227.16
2022-10-05T03:28:58.333Z,101235.38
2022-10-05T03:31:29.078Z,101240.53
2022-10-05T03:33:58.525Z,101240.84
2022-10-05T03:36:38.024Z,101247.81
2022-10-05T03:39:09.249Z,101243.25
2022-10-05T03:41:40.316Z,101250.38
2022-10-05T03:44:26.896Z,101247.69
2022-10-05T03:46:54.430Z,101252.88
2022-10-05T03:49:24.652Z,101252.47
2022-10-05T03:51:59.604Z,101251.66
2022-10-05T03:54:31.403Z,101258.47
2022-10-05T03:57:06.615Z,101265.88
2022-10-05T03:59:35.795Z,101269.81
2022-10-05T04:02:12.786Z,101271.16
2022-10-05T04:04:58.986Z,101276.84
2022-10-05T04:07:42.873Z,101277.34
2022-10-05T04:10:13.586Z,101274.31
2022-10-05T04:12:41.933Z,101279.28
2022-10-05T04:15:18.588Z,101280.97
2022-10-05T04:17:47.953Z,101283.84
2022-10-05T04:20:17.858Z,101285.41
2022-10-05T04:22:58.232Z,101288.88
2022-10-05T04:25:35.006Z,101290.94
2022-10-05T04:28:05.610Z,101288.63
2022-10-05T04:30:34.095Z,101290.75
2022-10-05T04:33:02.652Z,101294.22
2022-10-05T04:35:41.051Z,101300.94
2022-10-05T04:38:11.963Z,101299.44
2022-10-05T04:40:52.686Z,101296.69
2022-10-05T04:43:32.560Z,101307.94
2022-10-05T04:46:19.076Z,101300.34
2022-10-05T04:49:06.359Z,101295.41
2022-10-05T04:51:38.566Z,101299.75
2022-10-05T04:54:15.511Z,101303.50
2022-10-05T04:56:47.750Z,101296.38
2022-10-05T04:59:34.242Z,101302.44
2022-10-05T05:02:23.665Z,101292.94
2022-10-05T05:05:06.185Z,101308.16
2022-10-05T16:37:59.506Z,101639.56
2022-10-05T16:40:45.892Z,101643.44
2022-10-05T16:43:32.604Z,101649.50
2022-10-05T16:46:09.929Z,101646.03
2022-10-05T16:48:37.584Z,101647.03
2022-10-05T16:51:17.154Z,101651.16
2022-10-05T16:53:46.021Z,101647.63
2022-10-05T16:56:20.328Z,101645.25
2022-10-05T16:58:47.691Z,101645.66
2022-10-05T17:01:28.379Z,101636.06
2022-10-05T17:03:56.277Z,101644.34
2022-10-05T17:06:30.396Z,101645.38
2022-10-05T17:09:16.762Z,101646.56
2022-10-05T17:12:00.835Z,101647.94
2022-10-05T17:14:40.589Z,101642.63
2022-10-05T17:17:27.390Z,101643.28
2022-10-05T17:20:04.202Z,101645.31
2022-10-05T17:22:34.723Z,101641.22
2022-10-05T17:25:09.151Z,101641.97
2022-10-05T17:27:50.971Z,101646.75
2022-10-05T17:30:18.642Z,101644.00
2022-10-05T17:33:00.266Z,101642.50
2022-10-05T17:35:54.337Z,101640.97
2022-10-05T17:38:22.813Z,101645.81
2022-10-05T17:41:06.490Z,101646.06
2022-10-05T17:43:33.914Z,101650.25
2022-10-05T17:46:02.105Z,101657.13
2022-10-05T17:48:43.180Z,101658.50
2022-10-05T17:51:36.575Z,101657.16
2022-10-05T17:54:42.712Z,101657.50
2022-10-05T17:57:10.139Z,101656.72
2022-10-05T17:59:37.662Z,101657.97
2022-10-05T18:02:21.597Z,101661.19
2022-10-05T18:05:07.454Z,101670.56
2022-10-05T18:07:37.107Z,101676.75
2022-10-05T18:10:15.446Z,101668.91
2022-10-05T18:13:11.217Z,101667.78
2022-10-05T18:15:46.237Z,101667.38
2022-10-05T18:18:32.512Z,101668.28
2022-10-05T18:21:15.243Z,101670.56
2022-10-05T18:23:44.757Z,101679.47
2022-10-05T18:26:20.540Z,101685.94
2022-10-05T18:28:51.835Z,101677.19
2022-10-05T18:31:33.237Z,101680.66
2022-10-05T18:34:10.054Z,101674.94
2022-10-05T18:36:56.597Z,101687.41
2022-10-05T18:39:32.694Z,101684.19
2022-10-05T18:42:14.111Z,101693.72
2022-10-05T18:44:46.393Z,101677.78
2022-10-05T18:47:32.198Z,101687.88
2022-10-05T18:50:02.821Z,101687.13
2022-10-05T18:52:49.645Z,101685.78
2022-10-05T18:55:29.120Z,101688.41
2022-10-05T18:58:15.334Z,101677.84
2022-10-05T19:01:01.610Z,101687.38
2022-10-05T19:03:35.264Z,101684.56
2022-10-05T19:06:13.247Z,101701.03
2022-10-05T19:08:43.704Z,101692.81
2022-10-05T19:11:19.264Z,101700.56
2022-10-05T19:14:01.521Z,101690.19
2022-10-05T19:16:35.037Z,101692.31
2022-10-05T19:19:07.644Z,101693.78
2022-10-05T19:21:47.554Z,101691.41
2022-10-05T19:24:20.391Z,101696.41
2022-10-05T19:27:00.195Z,101705.88
2022-10-05T19:29:36.462Z,101696.16
2022-10-05T19:32:22.732Z,101702.88
2022-10-05T19:34:57.000Z,101700.94
2022-10-05T19:37:33.830Z,101695.53
2022-10-05T19:40:02.574Z,101697.56
2022-10-05T19:42:50.947Z,101703.84
2022-10-05T19:45:21.364Z,101698.28
2022-10-05T19:47:48.773Z,101694.44
2022-10-05T19:50:34.946Z,101703.16
2022-10-05T19:53:10.455Z,101704.69
2022-10-05T19:55:41.806Z,101710.31
2022-10-05T19:58:36.629Z,101713.56
2022-10-05T20:01:06.858Z,101715.50
2022-10-05T20:03:35.515Z,101712.00
2022-10-05T20:06:04.017Z,101725.19
2022-10-05T20:08:41.967Z,101714.44
2022-10-05T20:11:11.792Z,101713.69
2022-10-05T20:13:45.531Z,101711.13
2022-10-05T20:16:31.953Z,101716.00
2022-10-05T20:19:19.437Z,101721.66
2022-10-05T20:21:47.970Z,101719.03
2022-10-05T20:24:16.367Z,101722.06
2022-10-05T20:27:06.962Z,101723.25
2022-10-05T20:29:38.114Z,101724.59
2022-10-05T20:32:08.870Z,101725.81
2022-10-05T20:34:36.915Z,101729.31
2022-10-05T20:37:04.360Z,101731.13
2022-10-05T20:39:31.986Z,101732.69
2022-10-05T20:41:59.642Z,101719.25
2022-10-05T20:44:26.971Z,101721.81
2022-10-05T20:46:57.562Z,101725.81
2022-10-05T20:49:26.592Z,101732.72
2022-10-05T20:51:55.867Z,101740.19
2022-10-05T20:54:23.543Z,101737.16
2022-10-05T20:56:51.848Z,101726.75
2022-10-05T20:59:19.268Z,101737.19
2022-10-05T21:01:49.488Z,101737.50
2022-10-05T21:04:17.315Z,101737.41
2022-10-05T21:06:45.072Z,101757.38
2022-10-05T21:09:15.040Z,101755.31
2022-10-05T21:11:42.686Z,101755.34
2022-10-05T21:14:10.464Z,101749.91
2022-10-05T21:16:38.380Z,101746.38
2022-10-05T21:19:14.786Z,101733.31
2022-10-05T21:21:42.769Z,101737.00
2022-10-05T21:24:11.819Z,101734.63
2022-10-05T21:26:44.313Z,101726.84
2022-10-05T21:29:12.907Z,101731.09
2022-10-05T21:31:40.733Z,101734.66
2022-10-05T21:34:08.283Z,101728.09
2022-10-05T21:36:36.048Z,101717.78
2022-10-05T21:39:03.441Z,101715.75
2022-10-05T21:41:31.097Z,101722.53
2022-10-05T21:43:58.673Z,101718.63
2022-10-05T21:46:26.748Z,101729.09
2022-10-05T21:48:54.664Z,101727.72
2022-10-05T21:51:23.508Z,101728.53
2022-10-05T21:53:52.236Z,101726.88
2022-10-05T21:56:20.194Z,101724.19
2022-10-05T21:58:48.056Z,101722.63
2022-10-05T22:01:20.166Z,101727.59
2022-10-05T22:03:49.728Z,101729.66
2022-10-05T22:06:17.383Z,101736.03
2022-10-05T22:08:44.767Z,101731.44
2022-10-05T22:11:13.147Z,101721.41
2022-10-05T22:13:42.077Z,101733.66
2022-10-05T22:16:10.813Z,101730.50
2022-10-05T22:18:38.347Z,101734.72
2022-10-05T22:21:06.665Z,101739.44
2022-10-05T22:23:35.875Z,101736.03
2022-10-05T22:26:03.262Z,101743.34
2022-10-05T22:28:33.313Z,101740.78
2022-10-05T22:31:02.062Z,101746.03
2022-10-05T22:33:29.798Z,101743.34
2022-10-05T22:35:58.613Z,101739.56
2022-10-05T22:38:26.451Z,101733.66
2022-10-05T22:40:54.046Z,101735.00
2022-10-05T22:43:21.515Z,101735.56
2022-10-05T22:45:49.704Z,101730.00
2022-10-05T22:48:17.403Z,101733.03
2022-10-05T22:50:46.109Z,101750.47
2022-10-05T22:53:15.561Z,101755.44
2022-10-05T22:55:42.911Z,101749.00
2022-10-05T22:58:10.342Z,101753.38
2022-10-05T23:00:57.601Z,101750.97
2022-10-05T23:03:25.551Z,101748.03
2022-10-05T23:05:56.563Z,101742.13
2022-10-05T23:08:28.363Z,101733.38
2022-10-05T23:11:04.929Z,101737.91
2022-10-05T23:13:33.647Z,101744.31
2022-10-05T23:16:08.436Z,101740.38
2022-10-05T23:18:36.008Z,101740.72
2022-10-05T23:21:03.665Z,101738.88
2022-10-05T23:23:31.195Z,101745.53
2022-10-05T23:26:01.641Z,101745.00
2022-10-05T23:28:29.485Z,101752.78
2022-10-05T23:31:04.604Z,101743.97
2022-10-05T23:33:32.862Z,101729.44
2022-10-05T23:36:04.618Z,101725.41
2022-10-05T23:38:32.485Z,101742.03
2022-10-05T23:41:00.198Z,101724.22
2022-10-05T23:43:27.705Z,101728.88
2022-10-05T23:45:56.483Z,101724.06
2022-10-05T23:48:25.037Z,101733.13
2022-10-05T23:50:53.400Z,101733.91
2022-10-05T23:53:20.796Z,101735.06
2022-10-05T23:55:51.496Z,101734.16
2022-10-05T23:58:19.350Z,101735.53
